KNRS/NRS METAR and TAF weather

Enter ICAO airport designator
Station Type Date Time Source
KNRS METAR 2020/09/19 00:56 UTC NOAA

KNRS 190056Z 29006KT 9SM FEW040 FEW100 FEW250 26/20 A2982 RMK SLP099 FU FEW100 LAST T02610200


Station Type Date Time Source
KNRS Decoded METAR 2020/09/19 00:56 UTC NOAA

IMPERIAL BEACH, NOLF, CA, United States (KNRS) 32-34N 117-07W 5M
Sep 18, 2020 - 08:56 PM EDT / 2020.09.19 0056 UTC
Wind: from the WNW (290 degrees) at 7 MPH (6 KT):0
Visibility: 9 mile(s):0
Sky conditions: mostly clear
Temperature: 79.0 F (26.1 C)
Dew Point: 68.0 F (20.0 C)
Relative Humidity: 69%
Pressure (altimeter): 29.82 in. Hg (1009 hPa)
ob: KNRS 190056Z 29006KT 9SM FEW040 FEW100 FEW250 26/20 A2982 RMK SLP099 FU FEW100 LAST T02610200
cycle: 1

Station Type Date Time Source
KNRS TAF UTC NOAA

Error!

Example: see airport list